Time;durP1;ratioP1;P1;durP2;ratioP2;P2;SDS_P1;SDS_P2;PMS_P1;PMS_P2;Temp;Humidity;BMP_temperature;BMP_pressure;BME280_temperature;BME280_humidity;BME280_pressure;Samples;Min_cycle;Max_cycle;Signal;HPM_P1;HPM_P2
2023/06/02 00:01:54;;;;;;;2.13;1.42;;;;;;;14.25;100.00;97343.81;5159967;27;20066;-56
2023/06/02 00:04:23;;;;;;;1.88;1.20;;;;;;;14.12;100.00;97349.25;5159716;27;20055;-55
2023/06/02 00:06:50;;;;;;;2.72;1.60;;;;;;;13.98;100.00;97324.84;5159885;27;20163;-61
2023/06/02 00:09:16;;;;;;;3.15;1.65;;;;;;;14.19;100.00;97337.28;5159528;27;20054;-59
2023/06/02 00:11:42;;;;;;;9.68;1.70;;;;;;;14.28;100.00;97325.66;5159970;27;20050;-59
2023/06/02 00:14:09;;;;;;;4.80;1.50;;;;;;;14.37;100.00;97364.41;5159652;27;20054;-60
2023/06/02 00:16:45;;;;;;;3.78;1.20;;;;;;;14.19;100.00;97328.25;5159903;27;20133;-51
2023/06/02 00:19:11;;;;;;;2.30;1.48;;;;;;;14.58;100.00;97363.84;5159336;27;20449;-59
2023/06/02 00:21:37;;;;;;;2.17;1.30;;;;;;;14.41;100.00;97339.50;5159790;27;20047;-52
2023/06/02 00:24:03;;;;;;;6.90;2.75;;;;;;;14.51;100.00;97319.16;5159184;27;20043;-59
2023/06/02 00:26:29;;;;;;;1.25;1.10;;;;;;;14.50;100.00;97318.38;5159518;27;20133;-60
2023/06/02 00:28:55;;;;;;;1.75;1.65;;;;;;;14.28;100.00;97312.63;5159541;27;20422;-56
2023/06/02 00:31:22;;;;;;;2.33;1.50;;;;;;;14.34;100.00;97310.91;5159303;27;20061;-56
2023/06/02 00:33:49;;;;;;;4.60;1.60;;;;;;;14.36;100.00;97307.69;5159485;27;20092;-57
2023/06/02 00:36:15;;;;;;;2.80;1.45;;;;;;;14.06;100.00;97351.00;5158987;27;20448;-61
2023/06/02 00:38:42;;;;;;;2.72;1.33;;;;;;;13.97;100.00;97326.03;5159502;27;20077;-53
2023/06/02 00:41:08;;;;;;;1.80;1.48;;;;;;;13.88;100.00;97274.31;5159128;27;20145;-52
2023/06/02 00:43:34;;;;;;;9.90;1.73;;;;;;;13.83;100.00;97254.81;5159337;27;20046;-59
2023/06/02 00:46:00;;;;;;;4.18;1.65;;;;;;;13.99;100.00;97263.00;5158966;27;20057;-60
2023/06/02 00:48:26;;;;;;;1.30;1.15;;;;;;;13.79;100.00;97260.38;5159330;27;20403;-52
2023/06/02 00:50:53;;;;;;;4.43;1.55;;;;;;;13.70;100.00;97281.50;5158794;27;20129;-51
2023/06/02 00:53:19;;;;;;;2.75;1.50;;;;;;;13.69;100.00;97255.16;5158793;27;20042;-59
2023/06/02 00:55:44;;;;;;;2.65;1.25;;;;;;;13.76;100.00;97247.50;5159095;27;20191;-61
2023/06/02 00:58:13;;;;;;;6.15;1.65;;;;;;;13.74;100.00;97244.38;5158959;27;20053;-60
2023/06/02 01:00:40;;;;;;;2.70;1.48;;;;;;;13.71;100.00;97250.75;5158835;27;20054;-53
2023/06/02 01:03:07;;;;;;;5.10;1.42;;;;;;;13.55;100.00;97246.03;5158912;27;20047;-51
2023/06/02 01:05:35;;;;;;;4.03;2.08;;;;;;;13.45;100.00;97235.28;5158756;27;20327;-56
2023/06/02 01:08:04;;;;;;;2.53;1.52;;;;;;;13.64;100.00;97235.19;5158553;27;20061;-56
2023/06/02 01:10:31;;;;;;;1.55;1.40;;;;;;;13.71;100.00;97250.00;5158889;27;20067;-60
2023/06/02 01:12:58;;;;;;;2.08;1.40;;;;;;;13.74;100.00;97246.38;5158608;27;20057;-59
2023/06/02 01:15:24;;;;;;;1.40;1.30;;;;;;;13.77;100.00;97245.50;5158845;27;20074;-53
2023/06/02 01:17:51;;;;;;;3.65;1.50;;;;;;;13.80;100.00;97261.94;5158494;27;20050;-52
2023/06/02 01:20:21;;;;;;;3.90;1.30;;;;;;;13.96;100.00;97282.38;5158373;27;20082;-61
2023/06/02 01:22:57;;;;;;;2.08;1.42;;;;;;;14.03;100.00;97299.53;5158577;27;20328;-56
2023/06/02 01:25:26;;;;;;;2.33;1.30;;;;;;;13.92;100.00;97281.72;5158395;27;20069;-51
2023/06/02 01:27:52;;;;;;;3.33;1.33;;;;;;;14.11;100.00;97316.63;5158686;27;20074;-51
2023/06/02 01:30:19;;;;;;;2.53;1.13;;;;;;;13.98;100.00;97355.13;5158341;27;20046;-62
2023/06/02 01:32:51;;;;;;;1.90;1.48;;;;;;;13.99;100.00;97347.63;5158611;27;20050;-57
2023/06/02 01:35:20;;;;;;;5.38;1.40;;;;;;;14.03;100.00;97351.88;5158260;27;20047;-52
2023/06/02 01:37:50;;;;;;;2.85;1.33;;;;;;;14.09;100.00;97363.13;5158649;27;20115;-59
2023/06/02 01:40:17;;;;;;;2.47;1.30;;;;;;;13.95;100.00;97344.97;5158172;27;20105;-59
2023/06/02 01:42:44;;;;;;;1.92;1.33;;;;;;;13.85;100.00;97316.50;5158064;27;20082;-57
2023/06/02 01:45:11;;;;;;;5.00;1.40;;;;;;;13.73;100.00;97324.66;5158014;27;20047;-51
2023/06/02 01:47:37;;;;;;;7.45;1.40;;;;;;;13.88;100.00;97342.41;5158241;27;20114;-52
2023/06/02 01:50:04;;;;;;;2.13;1.30;;;;;;;13.78;100.00;97346.19;5158129;27;20061;-60
2023/06/02 01:52:30;;;;;;;4.32;1.77;;;;;;;13.82;100.00;97336.63;5158162;27;20138;-56
2023/06/02 01:54:56;;;;;;;3.65;1.52;;;;;;;14.04;100.00;97267.22;5158455;27;20324;-59
2023/06/02 01:57:22;;;;;;;13.82;1.42;;;;;;;13.95;100.00;97311.91;5157871;27;20061;-61
2023/06/02 01:59:49;;;;;;;7.85;1.45;;;;;;;14.20;100.00;97330.56;5158190;27;20125;-57
2023/06/02 02:02:14;;;;;;;2.65;1.50;;;;;;;14.10;100.00;97323.38;5157812;27;20417;-52
2023/06/02 02:04:41;;;;;;;1.98;1.40;;;;;;;14.24;100.00;97349.78;5158149;27;20138;-53
2023/06/02 02:07:08;;;;;;;1.65;1.17;;;;;;;14.26;100.00;97391.44;5157653;27;20046;-53
2023/06/02 02:09:34;;;;;;;2.58;1.33;;;;;;;13.83;100.00;97266.59;5158309;27;20042;-62
2023/06/02 02:12:01;;;;;;;3.45;1.25;;;;;;;13.81;100.00;97268.22;5157623;27;20047;-57
2023/06/02 02:14:27;;;;;;;2.15;1.40;;;;;;;14.05;100.00;97318.38;5157759;27;20054;-58
2023/06/02 02:16:54;;;;;;;1.48;1.38;;;;;;;14.16;100.00;97250.00;5157700;27;20066;-57
2023/06/02 02:19:22;;;;;;;1.58;1.30;;;;;;;13.92;100.00;97248.66;5159413;27;20050;-52
2023/06/02 02:21:48;;;;;;;4.00;1.30;;;;;;;14.05;100.00;97236.47;5161454;27;20464;-61
2023/06/02 02:24:14;;;;;;;1.65;1.30;;;;;;;14.01;100.00;97282.66;5161325;27;20384;-56
2023/06/02 02:26:40;;;;;;;2.83;1.40;;;;;;;14.07;100.00;97325.00;5161495;27;20424;-61
2023/06/02 02:29:06;;;;;;;2.90;1.27;;;;;;;13.70;100.00;97311.78;5161272;27;20046;-57
2023/06/02 02:31:32;;;;;;;2.47;1.55;;;;;;;13.69;100.00;97249.63;5161549;27;20097;-54
2023/06/02 02:33:59;;;;;;;2.67;1.65;;;;;;;13.91;100.00;97258.91;5161166;27;20374;-54
2023/06/02 02:36:25;;;;;;;1.73;1.50;;;;;;;13.91;100.00;97289.19;5161482;27;20047;-56
2023/06/02 02:38:51;;;;;;;1.40;1.30;;;;;;;13.89;100.00;97289.66;5161021;27;20103;-53
2023/06/02 02:41:18;;;;;;;9.95;1.85;;;;;;;13.46;100.00;97243.09;5161212;27;20495;-54
2023/06/02 02:43:43;;;;;;;2.00;1.38;;;;;;;13.83;100.00;97235.53;5160908;27;20053;-59
2023/06/02 02:46:09;;;;;;;3.67;1.58;;;;;;;13.75;100.00;97253.41;5161127;27;20141;-61
2023/06/02 02:48:35;;;;;;;1.58;1.20;;;;;;;13.49;100.00;97246.97;5160937;27;20047;-58
2023/06/02 02:51:02;;;;;;;1.75;1.30;;;;;;;13.76;100.00;97246.69;5160797;27;20107;-56
2023/06/02 02:53:31;;;;;;;4.93;2.10;;;;;;;14.20;100.00;97285.72;5161165;27;20058;-57
2023/06/02 02:55:57;;;;;;;2.67;1.42;;;;;;;14.63;100.00;97325.91;5160892;27;20054;-59
2023/06/02 02:58:24;;;;;;;1.95;1.48;;;;;;;14.77;100.00;97381.47;5161127;27;20097;-59
2023/06/02 03:00:50;;;;;;;3.25;1.20;;;;;;;14.30;100.00;97405.94;5160746;27;20059;-52
2023/06/02 03:03:16;;;;;;;7.45;1.58;;;;;;;14.43;100.00;97403.22;5161178;27;20047;-60
2023/06/02 03:05:45;;;;;;;4.07;2.00;;;;;;;14.38;100.00;97398.25;5160748;27;20082;-52
2023/06/02 03:08:12;;;;;;;1.85;1.35;;;;;;;14.05;100.00;97266.00;5160976;27;20062;-54
2023/06/02 03:10:38;;;;;;;2.05;1.27;;;;;;;14.62;100.00;97292.03;5160513;27;20409;-56
2023/06/02 03:13:04;;;;;;;6.88;1.65;;;;;;;14.82;100.00;97394.72;5160660;27;20100;-59
2023/06/02 03:15:30;;;;;;;4.68;1.52;;;;;;;15.14;100.00;97450.25;5160487;27;20110;-61
2023/06/02 03:17:58;;;;;;;2.40;1.35;;;;;;;14.90;100.00;97496.63;5160354;27;20080;-57
2023/06/02 03:20:25;;;;;;;2.08;1.45;;;;;;;15.20;100.00;97503.69;5160734;27;20049;-51
2023/06/02 03:22:51;;;;;;;4.75;1.63;;;;;;;15.83;100.00;97572.19;5160436;27;20046;-61
2023/06/02 03:25:20;;;;;;;4.60;1.60;;;;;;;16.51;100.00;97674.50;5160282;27;20057;-57
2023/06/02 03:27:46;;;;;;;1.67;1.55;;;;;;;16.80;100.00;97700.13;5160304;27;20051;-62
2023/06/02 03:30:13;;;;;;;1.50;1.40;;;;;;;16.06;100.00;97761.06;5159506;27;20512;-61
2023/06/02 03:32:39;;;;;;;7.63;1.27;;;;;;;16.90;100.00;97778.50;5160046;27;20141;-59
2023/06/02 03:35:05;;;;;;;2.05;1.30;;;;;;;16.87;100.00;97782.16;5160573;27;20225;-62
2023/06/02 03:37:31;;;;;;;1.77;1.40;;;;;;;16.84;100.00;97830.84;5160135;27;20055;-61
2023/06/02 03:39:57;;;;;;;3.42;2.13;;;;;;;17.40;100.00;97840.69;5160264;27;20051;-60
2023/06/02 03:42:24;;;;;;;3.10;1.98;;;;;;;17.63;100.00;97878.38;5160267;27;20446;-60
2023/06/02 03:44:49;;;;;;;7.53;1.77;;;;;;;17.42;100.00;97899.19;5160071;27;20054;-61
2023/06/02 03:47:15;;;;;;;1.50;1.40;;;;;;;17.44;100.00;97913.38;5160267;27;20057;-60
2023/06/02 03:49:41;;;;;;;3.15;1.63;;;;;;;17.80;100.00;97940.03;5159973;27;20278;-57
2023/06/02 03:52:07;;;;;;;1.75;1.30;;;;;;;18.08;100.00;97918.94;5160151;27;20311;-54
2023/06/02 03:54:33;;;;;;;2.67;1.50;;;;;;;17.87;100.00;97937.81;5160048;27;20141;-53
2023/06/02 03:56:59;;;;;;;2.65;1.38;;;;;;;18.10;100.00;97927.63;5160169;27;20050;-52
2023/06/02 03:59:26;;;;;;;3.10;1.27;;;;;;;18.38;100.00;97948.09;5159770;27;20335;-62
2023/06/02 04:01:52;;;;;;;1.60;1.45;;;;;;;18.82;100.00;97975.97;5160348;27;20434;-60
2023/06/02 07:04:18;;;;;;;8.57;1.60;;;;;;;17.92;100.00;97863.63;5132506;27;20312;-53
2023/06/02 07:06:44;;;;;;;5.95;1.80;;;;;;;18.25;100.00;97869.66;5139811;27;20062;-55
2023/06/02 07:09:11;;;;;;;5.95;1.75;;;;;;;18.14;100.00;97874.81;5139549;28;20137;-57
2023/06/02 07:11:37;;;;;;;3.40;1.90;;;;;;;18.64;100.00;97879.41;5139315;28;20048;-58
2023/06/02 07:14:04;;;;;;;4.35;1.45;;;;;;;18.81;100.00;97889.13;5137200;28;20054;-56
2023/06/02 07:16:30;;;;;;;13.57;1.92;;;;;;;19.03;100.00;97905.81;5138988;28;20138;-63
2023/06/02 07:18:56;;;;;;;5.05;1.77;;;;;;;18.85;100.00;97914.00;5140042;28;20351;-56
2023/06/02 07:21:22;;;;;;;6.00;1.70;;;;;;;18.64;100.00;97896.06;5139698;28;20058;-54
2023/06/02 07:23:48;;;;;;;2.10;1.80;;;;;;;19.10;100.00;97926.22;5139535;27;20051;-59
2023/06/02 07:26:15;;;;;;;2.60;1.83;;;;;;;20.05;100.00;97940.47;5139655;28;20058;-56
2023/06/02 07:28:42;;;;;;;4.60;1.75;;;;;;;20.08;100.00;97967.38;5139312;27;20055;-58
2023/06/02 07:31:09;;;;;;;7.15;2.22;;;;;;;20.81;100.00;97989.09;5139390;28;20043;-62
2023/06/02 07:33:35;;;;;;;2.85;1.92;;;;;;;20.92;100.00;97989.44;5139874;28;20285;-60
2023/06/02 07:36:01;;;;;;;6.85;1.75;;;;;;;20.77;100.00;97996.81;5139009;27;20058;-59
2023/06/02 07:38:27;;;;;;;5.15;1.60;;;;;;;20.50;100.00;98013.47;5139197;28;20094;-57
2023/06/02 07:40:53;;;;;;;2.20;1.83;;;;;;;21.52;100.00;98040.97;5137051;28;20096;-56
2023/06/02 07:43:19;;;;;;;3.03;1.50;;;;;;;21.95;100.00;98038.28;5138977;28;20126;-59
2023/06/02 07:45:45;;;;;;;4.78;1.25;;;;;;;20.58;100.00;98029.41;5136690;28;20142;-58
2023/06/02 07:48:11;;;;;;;7.47;1.80;;;;;;;20.79;100.00;98025.00;5138763;28;20055;-59
2023/06/02 07:50:37;;;;;;;4.10;1.60;;;;;;;20.47;100.00;98017.94;5136823;28;20057;-59
2023/06/02 07:53:03;;;;;;;3.33;1.85;;;;;;;20.69;100.00;98017.84;5139079;28;20092;-59
2023/06/02 07:55:30;;;;;;;1.95;1.48;;;;;;;21.20;100.00;98038.81;5137189;28;20329;-56
2023/06/02 07:57:56;;;;;;;5.10;1.40;;;;;;;20.98;100.00;98041.72;5138594;28;20134;-54
2023/06/02 08:00:22;;;;;;;3.40;1.40;;;;;;;20.82;100.00;98032.41;5136842;28;20047;-59
2023/06/02 08:02:48;;;;;;;3.78;1.48;;;;;;;20.56;100.00;98043.03;5138530;28;20083;-61
2023/06/02 08:05:14;;;;;;;7.63;1.60;;;;;;;19.14;100.00;98021.31;5136533;27;20047;-63
2023/06/02 08:07:41;;;;;;;8.45;2.00;;;;;;;19.95;100.00;98017.56;5137079;28;20134;-60
2023/06/02 08:10:08;;;;;;;3.03;1.60;;;;;;;19.81;100.00;98025.69;5138343;28;20157;-60
2023/06/02 08:12:35;;;;;;;5.38;1.83;;;;;;;19.21;100.00;97991.28;5136452;28;20065;-60
2023/06/02 08:15:01;;;;;;;4.47;1.40;;;;;;;19.88;100.00;98009.47;5138470;28;20051;-59
2023/06/02 08:17:29;;;;;;;2.58;1.40;;;;;;;20.19;100.00;98044.88;5135456;27;20107;-62
2023/06/02 08:19:55;;;;;;;6.57;1.50;;;;;;;20.32;100.00;98059.47;5138391;28;20087;-61
2023/06/02 08:22:21;;;;;;;5.82;1.45;;;;;;;20.19;100.00;98056.78;5136565;28;20122;-59
2023/06/02 08:24:47;;;;;;;7.55;1.65;;;;;;;20.81;100.00;98064.28;5138187;28;20146;-56
2023/06/02 08:27:14;;;;;;;3.08;1.52;;;;;;;20.22;100.00;98063.44;5136607;28;20051;-56
2023/06/02 08:29:41;;;;;;;4.60;1.25;;;;;;;20.59;100.00;98075.53;5138067;28;20074;-64
2023/06/02 08:32:07;;;;;;;1.48;1.35;;;;;;;21.23;100.00;98093.63;5136447;28;20061;-63
2023/06/02 08:34:33;;;;;;;4.10;2.08;;;;;;;20.97;100.00;98107.06;5137170;28;20086;-60
2023/06/02 08:37:00;;;;;;;4.00;1.85;;;;;;;21.20;100.00;98108.50;5136564;27;20047;-62
2023/06/02 08:39:26;;;;;;;2.83;1.33;;;;;;;20.53;100.00;98093.31;5136402;28;20104;-62
2023/06/02 08:41:55;;;;;;;4.97;1.30;;;;;;;20.28;100.00;98075.53;5138537;28;20354;-67
2023/06/02 08:44:21;;;;;;;3.47;1.48;;;;;;;19.02;100.00;98048.66;5136055;28;20080;-63
2023/06/02 08:46:48;;;;;;;2.80;1.40;;;;;;;18.90;100.00;98038.38;5138263;28;20082;-64
2023/06/02 08:49:18;;;;;;;2.60;1.60;;;;;;;18.68;100.00;98007.75;5136208;28;20419;-57
2023/06/02 08:51:44;;;;;;;7.82;1.55;;;;;;;18.44;100.00;97982.38;5137824;28;20404;-66
2023/06/02 08:54:11;;;;;;;5.22;1.60;;;;;;;18.23;100.00;97983.09;5136321;28;20051;-60
2023/06/02 08:56:37;;;;;;;15.20;1.55;;;;;;;17.42;100.00;97904.72;5137817;28;20432;-57
2023/06/02 08:59:03;;;;;;;18.17;2.10;;;;;;;17.08;100.00;97849.94;5136186;28;20138;-63
2023/06/02 09:01:29;;;;;;;2.88;1.70;;;;;;;17.54;100.00;97795.91;5137710;28;20129;-62
2023/06/02 09:03:55;;;;;;;5.60;1.60;;;;;;;18.17;100.00;97862.81;5137817;28;20047;-65
2023/06/02 09:06:22;;;;;;;7.63;2.03;;;;;;;17.95;100.00;97923.72;5135554;27;20061;-60
2023/06/02 09:08:53;;;;;;;5.78;1.65;;;;;;;17.87;100.00;97887.91;5137786;28;20105;-59
2023/06/02 09:11:19;;;;;;;4.60;1.73;;;;;;;17.41;100.00;97872.69;5135960;28;20047;-65
2023/06/02 09:13:45;;;;;;;9.20;1.70;;;;;;;17.10;100.00;97847.53;5137500;28;20046;-58
2023/06/02 09:16:11;;;;;;;11.70;2.20;;;;;;;17.10;100.00;97864.13;5135831;28;20104;-54
2023/06/02 09:18:36;;;;;;;12.95;2.05;;;;;;;17.17;100.00;97863.94;5137437;28;20409;-56
2023/06/02 09:21:03;;;;;;;3.38;1.77;;;;;;;17.06;100.00;97860.69;5135568;28;20138;-59
2023/06/02 09:23:41;;;;;;;5.22;1.80;;;;;;;17.41;100.00;97901.19;5137305;28;20089;-61
2023/06/02 09:26:18;;;;;;;5.22;1.50;;;;;;;17.26;100.00;97886.22;5135653;28;20316;-58
2023/06/02 09:28:43;;;;;;;4.28;1.95;;;;;;;17.49;100.00;97878.78;5135492;27;20047;-56
2023/06/02 09:31:10;;;;;;;12.70;2.60;;;;;;;18.00;100.00;97909.31;5120426;28;20051;-58
2023/06/02 09:33:36;;;;;;;7.75;1.73;;;;;;;18.06;100.00;97960.22;5135239;28;20462;-57
2023/06/02 09:36:04;;;;;;;3.53;2.05;;;;;;;17.77;100.00;97963.09;5137410;27;20389;-64
2023/06/02 09:38:42;;;;;;;10.90;2.10;;;;;;;17.50;100.00;97944.88;5135063;28;20379;-56
2023/06/02 09:41:15;;;;;;;5.80;2.15;;;;;;;17.22;100.00;97960.31;5137263;28;20042;-58
2023/06/02 09:43:41;;;;;;;5.40;2.30;;;;;;;16.93;100.00;97914.03;5135102;28;20043;-62
2023/06/02 09:46:07;;;;;;;7.07;2.53;;;;;;;17.09;100.00;97895.78;5136949;28;20063;-57
2023/06/02 09:48:34;;;;;;;7.05;2.35;;;;;;;16.97;100.00;97929.78;5134997;28;20103;-57
2023/06/02 09:51:01;;;;;;;26.75;2.80;;;;;;;16.83;100.00;97909.56;5136764;28;20421;-58
2023/06/02 09:53:28;;;;;;;12.70;2.17;;;;;;;16.72;100.00;97909.03;5135471;28;20138;-62
2023/06/02 09:55:54;;;;;;;4.13;2.40;;;;;;;16.27;100.00;97837.94;5137152;28;20174;-62
2023/06/02 09:58:20;;;;;;;10.20;2.10;;;;;;;15.95;100.00;97811.88;5137230;28;20047;-65
2023/06/02 10:00:46;;;;;;;3.03;2.28;;;;;;;15.62;100.00;97807.56;5136940;28;20059;-58
2023/06/02 10:03:12;;;;;;;4.97;2.97;;;;;;;15.25;100.00;97776.47;5136962;28;20058;-58
2023/06/02 10:05:42;;;;;;;11.75;2.85;;;;;;;15.76;100.00;97763.00;5136821;27;20630;-56
2023/06/02 10:08:21;;;;;;;4.07;2.58;;;;;;;15.84;100.00;97825.19;5136893;28;20054;-60
2023/06/02 10:10:58;;;;;;;4.63;2.58;;;;;;;15.44;100.00;97792.19;5137137;28;20051;-55
2023/06/02 10:13:37;;;;;;;5.82;2.33;;;;;;;15.11;100.00;97766.53;5136587;28;20047;-60
2023/06/02 10:16:20;;;;;;;6.72;2.45;;;;;;;14.83;100.00;97699.75;5136972;28;20051;-56
2023/06/02 10:19:08;;;;;;;13.13;3.33;;;;;;;14.68;100.00;97752.91;5136955;28;20130;-61
2023/06/02 10:21:46;;;;;;;7.22;2.72;;;;;;;14.51;100.00;97719.75;5136529;28;20393;-60
2023/06/02 10:24:25;;;;;;;4.00;3.10;;;;;;;14.42;100.00;97697.44;5136953;28;20203;-67
2023/06/02 10:27:08;;;;;;;4.43;2.42;;;;;;;14.46;100.00;97720.22;5136738;28;20047;-58
2023/06/02 10:29:36;;;;;;;7.97;2.90;;;;;;;14.00;100.00;97690.84;5137055;28;20057;-64
2023/06/02 10:32:19;;;;;;;11.05;2.70;;;;;;;14.00;100.00;97672.34;5138190;28;20050;-61
2023/06/02 10:34:49;;;;;;;13.48;2.47;;;;;;;13.72;100.00;97648.09;5136714;28;20418;-64
2023/06/02 10:37:16;;;;;;;5.70;2.25;;;;;;;13.67;100.00;97623.81;5136165;27;20142;-57
2023/06/02 10:39:53;;;;;;;7.88;2.72;;;;;;;13.89;100.00;97641.44;5137420;27;20047;-62
2023/06/02 10:42:21;;;;;;;10.40;2.70;;;;;;;13.84;100.00;97637.22;5140615;28;20058;-65
2023/06/02 10:44:47;;;;;;;4.30;1.98;;;;;;;13.52;100.00;97645.31;5139775;28;20051;-65
2023/06/02 10:47:43;;;;;;;10.05;2.22;;;;;;;13.55;100.00;97659.00;5140711;28;20058;-57
2023/06/02 10:50:11;;;;;;;12.18;4.13;;;;;;;13.70;100.00;97643.00;5037210;28;20495;-64
2023/06/02 10:53:13;;;;;;;4.68;2.17;;;;;;;13.48;100.00;97636.34;5116150;28;20047;-56
2023/06/02 10:55:41;;;;;;;5.20;2.38;;;;;;;13.52;100.00;97626.03;5037198;28;20057;-61
2023/06/02 10:58:12;;;;;;;7.30;2.60;;;;;;;12.92;100.00;97636.84;5037409;28;20064;-58
2023/06/02 11:00:45;;;;;;;9.55;2.65;;;;;;;13.12;100.00;97620.41;5037157;28;20080;-55
2023/06/02 11:03:34;;;;;;;7.43;3.05;;;;;;;12.88;100.00;97623.16;5036964;28;20077;-68
2023/06/02 11:06:18;;;;;;;7.60;2.97;;;;;;;12.92;100.00;97640.38;5036691;28;20131;-61
2023/06/02 11:08:44;;;;;;;9.20;2.83;;;;;;;12.22;100.00;97640.22;5037020;28;20053;-62
2023/06/02 11:11:11;;;;;;;4.75;2.92;;;;;;;12.16;100.00;97661.91;5036941;28;20053;-65
2023/06/02 11:13:58;;;;;;;5.97;3.38;;;;;;;12.20;100.00;97667.34;5037189;28;20049;-54
2023/06/02 11:16:27;;;;;;;5.03;3.90;;;;;;;11.83;100.00;97679.13;5036992;28;20178;-57
2023/06/02 11:18:53;;;;;;;7.20;3.00;;;;;;;12.32;100.00;97683.28;5037123;28;20064;-60
2023/06/02 11:21:22;;;;;;;6.03;2.95;;;;;;;12.58;100.00;97653.50;5037132;28;20064;-56
2023/06/02 11:23:48;;;;;;;8.15;2.90;;;;;;;12.80;100.00;97640.22;5036881;28;20114;-56
2023/06/02 11:26:15;;;;;;;3.13;2.50;;;;;;;12.70;100.00;97650.19;5081123;28;20324;-58
2023/06/02 11:28:42;;;;;;;3.03;2.25;;;;;;;12.67;100.00;97660.03;5139599;28;20051;-61
2023/06/02 11:31:11;;;;;;;2.13;1.77;;;;;;;12.62;100.00;97663.22;5139535;28;20595;-54
2023/06/02 11:33:38;;;;;;;10.40;2.58;;;;;;;12.46;100.00;97652.06;5139274;28;20131;-55
2023/06/02 11:36:06;;;;;;;2.78;2.13;;;;;;;12.44;100.00;97670.97;5139728;27;20395;-55
2023/06/02 11:38:33;;;;;;;7.78;2.45;;;;;;;13.02;100.00;97682.66;5139146;28;20080;-57
2023/06/02 11:41:08;;;;;;;10.32;2.30;;;;;;;12.97;100.00;97724.41;5139725;28;20138;-61
2023/06/02 11:43:34;;;;;;;5.90;2.00;;;;;;;13.07;100.00;97728.22;5139111;28;20047;-58
2023/06/02 11:46:05;;;;;;;3.80;2.15;;;;;;;13.54;100.00;97751.06;5139413;28;20061;-64
2023/06/02 11:48:32;;;;;;;4.18;2.53;;;;;;;13.83;100.00;97797.41;5139780;28;20137;-61
2023/06/02 11:50:58;;;;;;;4.47;1.90;;;;;;;13.80;100.00;97883.63;5138644;27;20051;-62
2023/06/02 11:53:24;;;;;;;5.85;2.03;;;;;;;13.32;100.00;97870.94;5138750;28;20107;-57
2023/06/02 11:55:51;;;;;;;4.22;2.42;;;;;;;14.14;100.00;97902.75;5138964;28;20282;-54
2023/06/02 11:58:19;;;;;;;2.38;1.83;;;;;;;14.70;100.00;98005.03;5139369;28;20089;-62
2023/06/02 12:00:45;;;;;;;3.35;1.85;;;;;;;14.69;100.00;98011.75;5138918;28;20142;-64
2023/06/02 12:03:12;;;;;;;1.88;1.40;;;;;;;14.59;100.00;98065.91;5139037;28;20124;-60
2023/06/02 12:05:43;;;;;;;3.15;1.50;;;;;;;14.61;100.00;98053.69;5138862;27;20055;-57
2023/06/02 12:08:11;;;;;;;2.97;1.42;;;;;;;14.51;100.00;98069.19;5138958;28;20051;-58
2023/06/02 12:10:38;;;;;;;3.50;1.42;;;;;;;15.07;100.00;98119.13;5138262;28;20137;-57
2023/06/02 12:13:04;;;;;;;10.13;1.40;;;;;;;14.44;100.00;98182.31;5138497;28;20075;-62
2023/06/02 12:15:33;;;;;;;2.70;0.90;;;;;;;14.64;100.00;98199.81;5138961;28;20066;-63
2023/06/02 12:18:00;;;;;;;4.25;1.15;;;;;;;14.50;100.00;98213.78;5138879;28;20076;-65
2023/06/02 12:20:37;;;;;;;3.30;1.10;;;;;;;14.93;100.00;98243.56;5138509;28;20408;-67
2023/06/02 12:23:04;;;;;;;6.05;1.70;;;;;;;14.48;100.00;98235.44;5138533;28;20423;-57
2023/06/02 12:25:30;;;;;;;7.53;1.35;;;;;;;14.45;100.00;98234.28;5138764;28;20108;-60
2023/06/02 12:28:05;;;;;;;3.20;1.33;;;;;;;13.79;100.00;98213.38;5138828;28;20047;-56
2023/06/02 12:30:31;;;;;;;3.42;1.38;;;;;;;14.04;100.00;98199.34;5138786;28;20443;-60
2023/06/02 12:33:05;;;;;;;1.02;1.02;;;;;;;14.08;100.00;98186.31;5138333;28;20051;-67
2023/06/02 12:35:31;;;;;;;2.07;1.23;;;;;;;14.23;100.00;98194.41;5138659;27;20051;-68
2023/06/02 12:37:57;;;;;;;1.10;0.95;;;;;;;14.49;100.00;98184.59;5138601;28;20308;-64
2023/06/02 12:40:23;;;;;;;8.00;1.33;;;;;;;14.50;100.00;98244.09;5138119;28;20047;-59
2023/06/02 12:42:49;;;;;;;16.20;1.20;;;;;;;13.95;100.00;98240.38;5138403;28;20046;-57
2023/06/02 12:45:15;;;;;;;1.15;0.90;;;;;;;13.63;100.00;98247.00;5138949;28;20150;-57
2023/06/02 12:47:41;;;;;;;3.67;0.80;;;;;;;13.62;100.00;98198.59;5138999;28;20095;-54
2023/06/02 12:50:08;;;;;;;3.50;1.13;;;;;;;13.12;100.00;98188.00;5138530;28;20047;-58
2023/06/02 12:52:34;;;;;;;1.70;0.75;;;;;;;13.21;100.00;98195.03;5138972;28;20353;-64
2023/06/02 12:55:00;;;;;;;9.05;1.00;;;;;;;13.14;100.00;98202.16;5138304;28;20062;-58
2023/06/02 12:57:27;;;;;;;3.08;0.80;;;;;;;12.63;100.00;98206.44;5138621;28;20082;-56
2023/06/02 12:59:53;;;;;;;6.10;1.15;;;;;;;12.68;100.00;98163.97;5137967;28;20488;-64
2023/06/02 13:02:19;;;;;;;5.25;1.08;;;;;;;12.78;100.00;98160.38;5137914;27;20100;-66
2023/06/02 13:04:45;;;;;;;1.83;1.05;;;;;;;12.90;100.00;98179.16;5137976;28;20321;-64
2023/06/02 13:07:11;;;;;;;2.50;0.90;;;;;;;13.00;100.00;98190.50;5138177;27;20046;-61
2023/06/02 13:09:37;;;;;;;4.70;1.17;;;;;;;12.74;100.00;98173.38;5138187;28;20358;-56
2023/06/02 13:12:03;;;;;;;2.20;1.15;;;;;;;12.90;100.00;98181.13;5137924;28;20104;-59
2023/06/02 13:14:30;;;;;;;1.00;1.00;;;;;;;13.10;100.00;98198.66;5137976;28;20047;-64
2023/06/02 13:16:56;;;;;;;1.15;1.05;;;;;;;12.65;100.00;98186.78;5137741;28;20061;-64
2023/06/02 13:19:22;;;;;;;2.42;1.17;;;;;;;12.98;100.00;98177.13;5138109;28;20047;-60
2023/06/02 13:21:48;;;;;;;1.65;1.00;;;;;;;13.01;100.00;98176.31;5137676;28;20093;-68
2023/06/02 13:24:16;;;;;;;3.97;1.20;;;;;;;13.35;100.00;98183.94;5138066;28;20051;-66
2023/06/02 13:26:42;;;;;;;5.50;1.23;;;;;;;13.13;100.00;98156.56;5137640;28;20428;-64
2023/06/02 13:29:08;;;;;;;5.53;1.48;;;;;;;12.60;100.00;98143.22;5138002;28;20134;-65
2023/06/02 13:31:34;;;;;;;2.53;1.10;;;;;;;12.61;100.00;98107.06;5137351;28;20058;-61
2023/06/02 13:34:00;;;;;;;3.25;1.38;;;;;;;12.21;100.00;98098.31;5137802;28;20361;-60
2023/06/02 13:36:26;;;;;;;4.97;1.23;;;;;;;12.39;100.00;98105.66;5137460;27;20061;-57
2023/06/02 13:38:52;;;;;;;1.38;1.10;;;;;;;12.21;100.00;98092.81;5137616;28;20055;-55
2023/06/02 13:41:18;;;;;;;7.63;1.27;;;;;;;12.64;100.00;98102.75;5137552;28;20427;-60
2023/06/02 13:43:44;;;;;;;2.53;1.80;;;;;;;12.44;100.00;98129.97;5137615;28;20043;-58
2023/06/02 13:46:10;;;;;;;5.50;0.95;;;;;;;12.40;100.00;98091.53;5137449;28;20277;-59
2023/06/02 13:48:37;;;;;;;3.00;1.00;;;;;;;12.14;100.00;98078.34;5137419;28;20365;-56
2023/06/02 13:51:03;;;;;;;1.80;0.85;;;;;;;12.00;100.00;98073.72;5137706;28;20134;-56
2023/06/02 13:53:29;;;;;;;6.38;1.58;;;;;;;11.92;100.00;98040.00;5137103;28;20051;-68
2023/06/02 13:55:55;;;;;;;1.20;1.10;;;;;;;11.74;100.00;98036.53;5137444;28;20047;-67
2023/06/02 13:58:21;;;;;;;6.18;1.40;;;;;;;11.89;100.00;98062.75;5136934;28;20047;-59
2023/06/02 14:00:47;;;;;;;3.65;1.42;;;;;;;11.76;100.00;98081.66;5137502;28;20043;-57
2023/06/02 14:03:13;;;;;;;1.48;1.38;;;;;;;11.66;100.00;98060.50;5137126;28;20090;-58
2023/06/02 14:05:40;;;;;;;1.75;1.50;;;;;;;11.69;100.00;98056.16;5137022;27;20058;-54
2023/06/02 14:08:06;;;;;;;1.50;1.23;;;;;;;11.89;100.00;98042.75;5137598;28;20086;-62
2023/06/02 14:10:32;;;;;;;3.67;1.38;;;;;;;11.50;100.00;98054.69;5137178;28;20101;-63
2023/06/02 14:12:57;;;;;;;1.35;1.15;;;;;;;11.61;100.00;98093.06;5137588;28;20427;-63
2023/06/02 14:15:23;;;;;;;0.88;0.88;;;;;;;11.59;100.00;98092.66;5138627;27;20058;-59
2023/06/02 14:17:49;;;;;;;3.22;1.40;;;;;;;11.28;100.00;98052.00;5140941;28;20049;-57
2023/06/02 14:20:15;;;;;;;2.53;1.45;;;;;;;11.14;100.00;98013.63;5140824;28;20050;-58
2023/06/02 14:22:42;;;;;;;3.10;1.25;;;;;;;11.21;100.00;97988.94;5140909;28;20073;-62
2023/06/02 14:25:09;;;;;;;8.63;2.58;;;;;;;11.40;100.00;98011.59;5140434;28;20051;-59
2023/06/02 14:27:35;;;;;;;2.45;1.40;;;;;;;11.17;100.00;97995.63;5141019;28;20043;-67